Time;durP1;ratioP1;P1;durP2;ratioP2;P2;SDS_P1;SDS_P2;PMS_P1;PMS_P2;Temp;Humidity;BMP_temperature;BMP_pressure;BME280_temperature;BME280_humidity;BME280_pressure;Samples;Min_cycle;Max_cycle;Signal;HPM_P1;HPM_P2
2022/10/22 00:01:37;;;;;;;4.57;2.20;;;;;;;11.65;52.86;99977.00;5135533;27;20171;-89
2022/10/22 00:04:03;;;;;;;3.57;1.83;;;;;;;11.49;53.71;99975.09;5136376;27;20197;-88
2022/10/22 00:06:29;;;;;;;4.13;1.87;;;;;;;11.54;53.69;99973.13;5118166;27;20689;-88
2022/10/22 00:08:54;;;;;;;6.90;1.70;;;;;;;11.48;53.82;99976.00;5136534;27;20185;-88
2022/10/22 00:11:20;;;;;;;7.13;2.33;;;;;;;11.55;53.29;99974.84;5118128;27;20175;-88
2022/10/22 00:13:46;;;;;;;4.30;1.83;;;;;;;11.53;53.23;99977.50;5118103;27;20190;-89
2022/10/22 00:16:12;;;;;;;5.53;2.00;;;;;;;11.44;53.54;99966.56;5117985;27;20217;-89
2022/10/22 00:18:37;;;;;;;5.90;2.43;;;;;;;11.41;53.77;99962.31;5117948;27;20179;-89
2022/10/22 00:21:04;;;;;;;4.73;2.20;;;;;;;11.38;53.72;99962.44;5117914;27;20232;-88
2022/10/22 00:23:30;;;;;;;9.23;2.23;;;;;;;11.33;53.28;99971.41;5136306;27;20177;-88
2022/10/22 00:25:55;;;;;;;4.73;1.73;;;;;;;11.35;53.14;99969.56;5117777;27;20266;-89
2022/10/22 00:28:21;;;;;;;2.30;1.40;;;;;;;11.47;52.48;99971.69;5118111;27;20296;-88
2022/10/22 00:30:46;;;;;;;3.90;2.00;;;;;;;11.36;53.21;99964.28;5118614;27;20596;-89
2022/10/22 00:33:12;;;;;;;3.30;1.87;;;;;;;11.22;53.55;99964.00;5117690;27;20295;-88
2022/10/22 00:35:37;;;;;;;4.17;1.70;;;;;;;11.16;53.96;99958.16;5117561;27;20264;-88
2022/10/22 00:38:03;;;;;;;3.47;1.70;;;;;;;11.12;54.18;99965.28;5117568;27;20277;-88
2022/10/22 00:40:29;;;;;;;3.40;1.67;;;;;;;11.12;54.81;99957.41;5117517;27;20175;-88
2022/10/22 00:42:54;;;;;;;4.47;1.77;;;;;;;11.03;55.08;99955.19;5117772;27;20608;-88
2022/10/22 00:45:24;;;;;;;5.50;1.30;;;;;;;10.94;55.76;99950.31;5117464;27;20175;-88
2022/10/22 00:48:03;;;;;;;4.27;1.27;;;;;;;10.86;56.06;99947.16;5117380;27;20171;-88
2022/10/22 00:50:44;;;;;;;6.33;1.73;;;;;;;10.94;55.76;99945.06;5136293;27;20174;-88
2022/10/22 00:53:14;;;;;;;5.03;1.90;;;;;;;10.88;55.79;99940.06;5117201;27;20190;-88
2022/10/22 00:55:42;;;;;;;6.23;1.80;;;;;;;10.79;56.25;99940.47;5135493;27;20644;-88
2022/10/22 00:58:08;;;;;;;3.90;1.70;;;;;;;10.90;55.59;99943.50;5135276;27;20205;-88
2022/10/22 01:00:34;;;;;;;3.90;1.40;;;;;;;10.94;55.87;99947.69;5117125;27;20179;-88
2022/10/22 01:03:00;;;;;;;3.47;1.43;;;;;;;10.93;56.11;99946.84;5117076;27;20620;-88
2022/10/22 01:05:31;;;;;;;2.70;1.60;;;;;;;10.99;55.80;99943.09;5135135;27;20628;-88
2022/10/22 01:07:58;;;;;;;5.77;2.17;;;;;;;10.84;56.05;99944.59;5135091;27;20175;-88
2022/10/22 01:10:47;;;;;;;4.50;1.43;;;;;;;10.74;57.04;99952.91;5116905;27;20181;-88
2022/10/22 01:13:39;;;;;;;3.57;1.57;;;;;;;10.76;56.92;99937.94;5116687;27;20174;-88
2022/10/22 01:16:16;;;;;;;2.30;1.27;;;;;;;10.77;57.05;99932.63;5116729;27;20191;-88
2022/10/22 01:18:54;;;;;;;3.10;1.50;;;;;;;10.70;57.45;99935.56;5116832;27;20167;-88
2022/10/22 01:21:26;;;;;;;2.87;1.40;;;;;;;10.74;57.50;99937.16;5134893;27;20174;-88
2022/10/22 01:23:57;;;;;;;2.97;1.53;;;;;;;10.79;57.45;99936.06;5116999;27;20209;-88
2022/10/22 01:26:38;;;;;;;2.50;1.63;;;;;;;10.69;57.92;99934.72;5116646;27;20262;-88
2022/10/22 01:29:12;;;;;;;3.37;1.40;;;;;;;10.68;57.86;99934.78;5135034;27;20245;-88
2022/10/22 01:31:47;;;;;;;2.20;1.50;;;;;;;10.65;58.34;99934.91;5116617;27;20186;-88
2022/10/22 01:34:16;;;;;;;2.37;1.17;;;;;;;10.61;57.78;99922.84;5134935;27;20162;-88
2022/10/22 01:36:43;;;;;;;3.67;2.13;;;;;;;10.53;58.38;99930.16;5116351;27;20555;-88
2022/10/22 01:39:11;;;;;;;4.23;1.33;;;;;;;10.46;58.83;99922.53;5134793;27;20527;-88
2022/10/22 01:41:39;;;;;;;7.20;1.57;;;;;;;10.43;59.04;99914.78;5116313;27;20179;-88
2022/10/22 01:44:04;;;;;;;2.47;1.13;;;;;;;10.41;58.98;99913.13;5135019;27;20185;-88
2022/10/22 01:46:30;;;;;;;4.17;2.00;;;;;;;10.34;59.02;99907.31;5116327;27;20556;-88
2022/10/22 01:49:16;;;;;;;3.90;1.80;;;;;;;10.45;58.68;99909.50;5134417;27;20170;-88
2022/10/22 01:52:08;;;;;;;4.30;1.67;;;;;;;10.28;59.27;99914.53;5116087;27;20235;-88
2022/10/22 01:55:19;;;;;;;4.37;1.70;;;;;;;10.38;59.07;99908.00;5116251;27;20178;-88
2022/10/22 01:58:07;;;;;;;2.10;1.30;;;;;;;10.33;59.41;99915.19;5082753;27;20221;-88
2022/10/22 02:00:39;;;;;;;2.63;1.30;;;;;;;10.23;59.71;99916.47;5134216;27;20168;-88
2022/10/22 02:03:15;;;;;;;4.33;1.30;;;;;;;10.27;59.52;99912.84;5134241;27;20162;-88
2022/10/22 02:05:48;;;;;;;9.70;1.80;;;;;;;10.41;59.17;99910.53;5116000;27;20174;-88
2022/10/22 02:08:21;;;;;;;4.27;1.73;;;;;;;10.27;59.37;99910.22;5116061;28;20530;-88
2022/10/22 02:10:49;;;;;;;4.43;1.80;;;;;;;10.14;60.06;99907.19;5116528;27;20557;-87
2022/10/22 02:13:21;;;;;;;3.47;1.63;;;;;;;10.19;60.51;99907.03;5134034;27;20171;-88
2022/10/22 02:15:50;;;;;;;3.30;1.60;;;;;;;10.24;59.75;99905.97;5134327;27;20230;-88
2022/10/22 02:18:22;;;;;;;3.00;1.47;;;;;;;10.18;60.06;99908.81;5133997;27;20622;-88
2022/10/22 02:20:49;;;;;;;3.73;1.90;;;;;;;10.21;59.91;99906.06;5115891;28;20172;-88
2022/10/22 02:23:15;;;;;;;5.40;2.60;;;;;;;10.25;60.10;99907.66;5133938;28;20175;-88
2022/10/22 02:25:46;;;;;;;2.90;1.47;;;;;;;10.17;60.18;99906.22;5117994;27;20179;-88
2022/10/22 02:28:18;;;;;;;2.17;1.07;;;;;;;10.14;60.32;99907.19;5138273;27;20167;-88
2022/10/22 02:30:50;;;;;;;4.23;1.70;;;;;;;10.07;60.16;99913.56;5138758;27;20163;-88
2022/10/22 02:33:27;;;;;;;6.10;1.57;;;;;;;10.03;60.43;99914.59;5120117;27;20701;-88
2022/10/22 02:35:54;;;;;;;4.53;1.87;;;;;;;10.20;60.21;99919.22;5119885;27;20198;-88
2022/10/22 02:38:22;;;;;;;3.00;1.67;;;;;;;10.22;60.23;99923.47;5138284;27;20167;-88
2022/10/22 02:40:48;;;;;;;3.53;1.87;;;;;;;10.13;60.28;99923.84;5119844;27;20194;-88
2022/10/22 02:43:13;;;;;;;2.47;1.20;;;;;;;10.06;60.52;99924.97;5138225;27;20166;-87
2022/10/22 02:45:39;;;;;;;7.20;1.80;;;;;;;10.22;60.09;99926.09;5119772;27;20177;-88
2022/10/22 02:48:05;;;;;;;2.30;1.47;;;;;;;10.16;60.23;99923.75;5138106;27;20506;-88
2022/10/22 02:50:30;;;;;;;4.30;1.73;;;;;;;10.06;60.11;99932.84;5119732;27;20175;-87
2022/10/22 02:52:56;;;;;;;2.17;1.13;;;;;;;10.10;60.22;99931.78;5119474;27;20230;-88
2022/10/22 02:55:21;;;;;;;5.27;1.73;;;;;;;10.18;60.33;99932.38;5119531;27;20673;-88
2022/10/22 02:57:47;;;;;;;2.83;1.57;;;;;;;10.25;59.94;99936.47;5137919;27;20528;-88
2022/10/22 03:00:13;;;;;;;3.83;1.90;;;;;;;10.21;60.30;99942.75;5119489;27;20175;-88
2022/10/22 03:02:39;;;;;;;5.07;2.00;;;;;;;10.17;61.03;99935.91;5119428;27;20374;-87
2022/10/22 03:05:06;;;;;;;21.50;2.40;;;;;;;10.07;60.94;99934.53;5137504;27;20179;-87
2022/10/22 03:07:32;;;;;;;6.40;1.90;;;;;;;10.03;60.82;99937.31;5137737;27;20328;-87
2022/10/22 03:09:57;;;;;;;10.67;2.63;;;;;;;10.00;60.83;99938.28;5119300;27;20178;-87
2022/10/22 03:12:23;;;;;;;3.23;1.40;;;;;;;9.93;61.11;99939.44;5119235;27;20238;-88
2022/10/22 03:14:48;;;;;;;3.47;1.70;;;;;;;9.92;61.31;99935.09;5138128;27;20272;-88
2022/10/22 03:17:13;;;;;;;3.33;1.47;;;;;;;9.86;61.65;99940.56;5119101;27;20278;-87
2022/10/22 03:19:39;;;;;;;4.13;1.60;;;;;;;9.94;61.75;99937.66;5119165;27;20522;-87
2022/10/22 03:22:12;;;;;;;3.17;1.90;;;;;;;9.94;61.30;99935.03;5137455;27;20171;-87
2022/10/22 03:24:43;;;;;;;3.80;1.77;;;;;;;9.97;60.56;99937.53;5118980;27;20178;-87
2022/10/22 03:27:11;;;;;;;4.47;1.60;;;;;;;9.87;60.26;99943.13;5119062;27;20182;-87
2022/10/22 03:29:39;;;;;;;5.57;1.57;;;;;;;9.81;59.63;99943.34;5118946;27;20175;-87
2022/10/22 03:32:05;;;;;;;4.13;1.80;;;;;;;9.80;59.48;99940.81;5118875;27;20239;-87
2022/10/22 03:34:30;;;;;;;3.90;1.43;;;;;;;9.80;59.67;99940.81;5118834;27;20183;-87
2022/10/22 03:36:58;;;;;;;3.03;1.63;;;;;;;9.80;59.55;99943.41;5137355;27;20263;-87
2022/10/22 03:39:23;;;;;;;3.17;2.03;;;;;;;9.73;58.67;99941.91;5118795;27;20175;-87
2022/10/22 03:41:50;;;;;;;4.07;2.00;;;;;;;9.58;58.85;99947.72;5118933;27;20190;-87
2022/10/22 03:44:17;;;;;;;4.83;2.10;;;;;;;9.58;59.11;99942.47;5118615;27;20183;-87
2022/10/22 03:46:42;;;;;;;3.57;1.83;;;;;;;9.63;58.58;99944.03;5118647;27;20185;-87
2022/10/22 03:49:07;;;;;;;4.20;2.03;;;;;;;9.61;58.42;99943.22;5118573;27;20563;-87
2022/10/22 03:51:34;;;;;;;3.03;1.83;;;;;;;9.53;58.29;99936.56;5118344;27;20186;-87
2022/10/22 03:54:00;;;;;;;4.00;1.73;;;;;;;9.50;57.88;99928.81;5118468;27;20178;-87
2022/10/22 03:56:25;;;;;;;2.40;1.60;;;;;;;9.43;58.31;99929.94;5118287;27;20276;-87
2022/10/22 03:58:55;;;;;;;5.50;2.00;;;;;;;9.32;58.77;99927.69;5136466;27;20171;-87
2022/10/22 04:01:20;;;;;;;3.43;2.20;;;;;;;9.37;58.18;99924.91;5119080;27;20173;-87
2022/10/22 04:03:46;;;;;;;8.30;2.10;;;;;;;9.39;57.70;99931.78;5118248;27;20274;-87
2022/10/22 04:06:12;;;;;;;4.47;1.80;;;;;;;9.43;57.80;99928.19;5136700;27;20192;-87
2022/10/22 04:08:39;;;;;;;4.13;2.43;;;;;;;9.35;57.96;99929.34;5136556;27;20178;-87
2022/10/22 04:11:05;;;;;;;3.70;2.20;;;;;;;9.35;57.84;99932.81;5118955;27;20535;-87
2022/10/22 04:13:30;;;;;;;5.60;2.50;;;;;;;9.24;57.61;99925.34;5118906;27;20647;-87
2022/10/22 04:16:07;;;;;;;5.23;1.93;;;;;;;9.28;57.53;99924.31;5117974;27;20583;-87
2022/10/22 04:18:33;;;;;;;3.53;2.00;;;;;;;9.09;58.24;99917.19;5136129;27;20163;-87
2022/10/22 04:20:58;;;;;;;5.23;2.20;;;;;;;9.20;58.21;99922.88;5136077;27;20177;-87
2022/10/22 04:23:24;;;;;;;3.40;1.90;;;;;;;9.27;57.94;99901.72;5135995;27;20178;-87
2022/10/22 04:25:49;;;;;;;2.80;1.67;;;;;;;9.20;58.42;99913.25;5118140;27;20182;-87
2022/10/22 04:28:14;;;;;;;4.77;2.43;;;;;;;9.23;58.13;99914.91;5117831;27;20591;-87
2022/10/22 04:30:40;;;;;;;4.33;2.20;;;;;;;9.25;58.42;99911.34;5117729;27;20185;-87
2022/10/22 04:33:05;;;;;;;8.20;1.53;;;;;;;9.30;57.97;99910.34;5117770;27;20186;-87
2022/10/22 04:35:31;;;;;;;5.87;1.40;;;;;;;9.40;57.96;99919.56;5135648;27;20195;-87
2022/10/22 04:37:56;;;;;;;6.73;1.90;;;;;;;9.46;57.91;99912.34;5117608;27;20185;-87
2022/10/22 04:40:22;;;;;;;5.17;2.37;;;;;;;9.49;57.76;99920.09;5117537;27;20273;-87
2022/10/22 04:42:47;;;;;;;3.67;1.60;;;;;;;9.47;57.77;99913.19;5135584;27;20176;-87
2022/10/22 04:45:14;;;;;;;3.27;1.83;;;;;;;9.33;58.70;99913.69;5117753;27;20235;-87
2022/10/22 04:47:40;;;;;;;5.00;2.30;;;;;;;9.23;59.13;99913.16;5116765;27;20628;-87
2022/10/22 04:50:06;;;;;;;5.40;2.47;;;;;;;9.15;59.86;99915.19;5117343;27;20175;-87
2022/10/22 04:52:31;;;;;;;3.43;1.63;;;;;;;9.13;60.49;99917.00;5117384;27;20198;-87
2022/10/22 04:54:56;;;;;;;3.97;2.33;;;;;;;9.22;60.47;99915.84;5117254;27;20209;-87
2022/10/22 04:57:22;;;;;;;5.27;2.23;;;;;;;9.23;60.06;99918.41;5117195;27;20550;-87
2022/10/22 04:59:47;;;;;;;4.60;1.83;;;;;;;9.27;60.58;99913.94;5117187;27;20607;-87
2022/10/22 05:02:13;;;;;;;3.03;1.90;;;;;;;9.26;60.58;99912.19;5117442;27;20183;-87
2022/10/22 05:04:38;;;;;;;3.90;2.37;;;;;;;9.33;60.57;99907.63;5117089;27;20263;-87
2022/10/22 05:07:04;;;;;;;5.03;2.00;;;;;;;9.39;60.26;99912.63;5117044;27;20171;-87
2022/10/22 05:09:29;;;;;;;3.20;1.70;;;;;;;9.40;60.82;99909.09;5117310;27;20533;-87
2022/10/22 05:11:54;;;;;;;3.40;1.83;;;;;;;9.48;60.41;99913.16;5135324;27;20167;-87
2022/10/22 05:14:23;;;;;;;13.27;2.40;;;;;;;9.61;60.08;99913.56;5116914;27;20172;-87
2022/10/22 05:16:49;;;;;;;3.33;2.23;;;;;;;9.77;60.35;99917.34;5116739;27;20199;-87
2022/10/22 05:19:18;;;;;;;3.80;1.90;;;;;;;9.95;59.98;99919.28;5116761;27;20547;-87
2022/10/22 05:21:43;;;;;;;4.67;1.93;;;;;;;10.12;60.04;99922.13;5116699;27;20187;-88
2022/10/22 05:24:09;;;;;;;3.83;2.07;;;;;;;10.30;60.25;99929.28;5116701;27;20545;-88
2022/10/22 05:26:34;;;;;;;4.10;1.97;;;;;;;10.40;60.22;99914.91;5116963;27;20178;-88
2022/10/22 05:29:00;;;;;;;3.67;1.60;;;;;;;10.48;60.24;99930.34;5116966;27;20510;-88
2022/10/22 05:31:27;;;;;;;3.63;1.97;;;;;;;10.54;59.83;99937.94;5134715;27;20258;-87
2022/10/22 05:33:53;;;;;;;4.40;2.20;;;;;;;10.67;59.58;99933.94;5116581;27;20174;-88
2022/10/22 05:36:21;;;;;;;8.03;3.13;;;;;;;10.69;59.59;99939.13;5116427;27;20687;-88
2022/10/22 05:38:47;;;;;;;4.47;2.13;;;;;;;10.81;59.62;99930.75;5134561;27;20175;-88
2022/10/22 05:41:18;;;;;;;5.67;3.17;;;;;;;10.86;59.27;99928.78;5116699;27;20198;-88
2022/10/22 05:43:44;;;;;;;7.03;2.93;;;;;;;10.93;59.23;99935.47;5116435;27;20315;-88
2022/10/22 05:46:18;;;;;;;4.87;2.53;;;;;;;10.89;59.15;99926.03;5116304;27;20185;-88
2022/10/22 05:48:47;;;;;;;13.33;3.23;;;;;;;10.91;59.00;99917.19;5116326;27;20167;-88
2022/10/22 05:51:13;;;;;;;5.93;2.37;;;;;;;11.04;58.98;99912.28;5116406;27;20205;-88
2022/10/22 05:53:41;;;;;;;6.47;2.90;;;;;;;11.25;58.82;99918.38;5116227;27;20615;-88
2022/10/22 05:56:11;;;;;;;6.53;3.23;;;;;;;11.47;58.34;99925.28;5116125;27;20205;-88
2022/10/22 05:58:37;;;;;;;9.10;3.37;;;;;;;11.79;58.06;99923.03;5116140;27;20181;-88
2022/10/22 06:01:10;;;;;;;8.53;3.30;;;;;;;11.98;57.19;99916.88;5115627;27;20254;-88
2022/10/22 06:03:35;;;;;;;5.33;2.83;;;;;;;12.27;56.23;99913.75;5116394;27;20206;-88
2022/10/22 06:06:03;;;;;;;4.57;2.57;;;;;;;12.91;54.35;99915.91;5134115;27;20202;-88
2022/10/22 06:08:29;;;;;;;5.87;3.23;;;;;;;14.25;51.01;99891.25;5116252;27;20177;-88
2022/10/22 06:10:55;;;;;;;8.70;3.40;;;;;;;15.46;47.49;99892.16;5116288;27;20262;-88
2022/10/22 06:13:21;;;;;;;6.77;3.30;;;;;;;15.78;45.96;99891.00;5116493;27;20601;-88
2022/10/22 06:15:48;;;;;;;5.90;2.80;;;;;;;15.82;45.09;99892.53;5116118;27;20204;-88
2022/10/22 06:18:13;;;;;;;5.67;2.97;;;;;;;16.16;44.39;99896.56;5134019;27;20244;-88
2022/10/22 06:20:39;;;;;;;7.20;3.43;;;;;;;16.63;42.77;99894.41;5134223;27;20174;-88
2022/10/22 06:23:04;;;;;;;6.83;2.63;;;;;;;16.59;42.79;99888.44;5116608;28;20179;-89
2022/10/22 06:25:29;;;;;;;4.03;2.13;;;;;;;16.43;43.53;99892.16;5133904;28;20171;-88
2022/10/22 06:27:55;;;;;;;7.33;2.77;;;;;;;16.35;44.15;99884.69;5133947;28;20257;-88
2022/10/22 06:30:20;;;;;;;6.00;2.17;;;;;;;16.69;43.64;99875.47;5115797;28;20173;-89
2022/10/22 06:32:46;;;;;;;4.20;2.03;;;;;;;17.10;42.60;99875.34;5133830;28;20192;-88
2022/10/22 06:35:11;;;;;;;8.00;3.43;;;;;;;16.92;42.52;99874.78;5133764;28;20205;-88
2022/10/22 06:37:37;;;;;;;5.90;2.63;;;;;;;16.88;42.98;99867.13;5134085;28;20645;-89
2022/10/22 06:40:02;;;;;;;8.07;3.17;;;;;;;17.20;42.88;99869.31;5115706;28;20189;-89
2022/10/22 06:42:28;;;;;;;9.47;2.30;;;;;;;17.65;41.78;99862.69;5134015;28;20174;-89
2022/10/22 06:44:53;;;;;;;4.73;2.60;;;;;;;18.14;40.83;99853.88;5115967;28;20184;-89
2022/10/22 06:47:19;;;;;;;5.33;2.00;;;;;;;18.63;40.29;99848.53;5133742;28;20633;-89
2022/10/22 06:49:44;;;;;;;5.23;2.20;;;;;;;19.01;39.47;99852.66;5133674;28;20200;-89
2022/10/22 06:52:10;;;;;;;5.53;2.13;;;;;;;19.33;39.26;99855.53;5115561;28;20191;-89
2022/10/22 06:54:35;;;;;;;4.13;2.20;;;;;;;19.48;38.70;99857.03;5133648;28;20185;-89
2022/10/22 06:57:01;;;;;;;6.03;1.77;;;;;;;19.53;38.85;99851.34;5115484;28;20202;-89
2022/10/22 06:59:26;;;;;;;4.73;2.20;;;;;;;19.65;38.87;99847.75;5115530;28;20171;-89
2022/10/22 07:01:52;;;;;;;7.20;1.73;;;;;;;19.66;38.31;99854.72;5115801;28;20175;-89
2022/10/22 07:04:17;;;;;;;7.37;2.57;;;;;;;19.87;38.31;99860.16;5116258;28;20191;-89
2022/10/22 07:06:43;;;;;;;6.20;2.67;;;;;;;19.96;37.85;99860.31;5115740;28;20601;-89
2022/10/22 07:09:08;;;;;;;6.17;2.53;;;;;;;19.96;37.84;99870.94;5115436;28;20237;-89
2022/10/22 07:11:42;;;;;;;5.33;2.60;;;;;;;19.89;38.63;99866.25;5117400;27;20240;-89
2022/10/22 07:14:09;;;;;;;6.20;2.30;;;;;;;19.89;38.25;99864.41;5119472;27;20193;-89
2022/10/22 07:16:34;;;;;;;6.90;2.87;;;;;;;19.79;37.92;99874.09;5137491;27;20198;-89
2022/10/22 07:19:01;;;;;;;5.50;2.40;;;;;;;19.57;38.43;99880.22;5119111;27;20247;-89
2022/10/22 07:21:27;;;;;;;5.53;2.30;;;;;;;19.29;39.26;99885.94;5119681;27;20214;-89
2022/10/22 07:23:52;;;;;;;8.83;3.03;;;;;;;19.01;39.97;99881.03;5119116;27;20568;-91
2022/10/22 07:26:20;;;;;;;11.77;3.10;;;;;;;19.02;40.36;99878.25;5119405;27;20171;-91
2022/10/22 07:28:47;;;;;;;7.63;2.67;;;;;;;19.09;39.71;99885.78;5137388;27;20175;-92
2022/10/22 07:31:14;;;;;;;6.40;3.27;;;;;;;19.07;39.21;99879.72;5137348;27;20633;-91
2022/10/22 07:33:40;;;;;;;5.47;3.00;;;;;;;18.93;39.51;99880.75;5137052;27;20178;-91
2022/10/22 07:36:08;;;;;;;5.23;2.50;;;;;;;18.82;39.97;99881.56;5137197;27;20191;-91
2022/10/22 07:38:35;;;;;;;7.20;3.50;;;;;;;18.72;40.16;99890.31;5136879;27;20171;-91
2022/10/22 07:41:00;;;;;;;7.07;3.33;;;;;;;18.63;40.36;99886.53;5118759;27;20174;-91
2022/10/22 07:43:26;;;;;;;8.07;3.57;;;;;;;18.55;39.94;99896.06;5118727;27;20188;-91
2022/10/22 07:45:51;;;;;;;10.33;3.80;;;;;;;18.39;40.25;99889.16;5136776;27;20623;-91
2022/10/22 07:48:17;;;;;;;5.27;2.30;;;;;;;18.21;40.88;99879.03;5136755;27;20171;-90
2022/10/22 07:50:43;;;;;;;6.23;3.10;;;;;;;18.11;40.37;99875.31;5118587;27;20193;-91
2022/10/22 07:53:14;;;;;;;7.37;3.00;;;;;;;18.00;41.58;99875.25;5136595;27;20194;-91
2022/10/22 07:55:40;;;;;;;7.27;2.97;;;;;;;17.99;41.99;99871.75;5136510;27;20281;-92
2022/10/22 07:58:05;;;;;;;8.90;3.47;;;;;;;17.90;41.88;99869.75;5118437;27;20216;-92
2022/10/22 08:00:31;;;;;;;6.10;2.87;;;;;;;18.01;41.57;99866.34;5136598;27;20183;-91
2022/10/22 08:02:59;;;;;;;4.87;2.40;;;;;;;18.04;41.82;99866.13;5118331;27;20626;-92
2022/10/22 08:05:25;;;;;;;6.03;3.17;;;;;;;18.13;41.55;99862.81;5136686;27;20182;-91
2022/10/22 08:07:50;;;;;;;7.03;3.17;;;;;;;18.21;41.36;99863.13;5136374;27;20544;-91
2022/10/22 08:10:16;;;;;;;6.73;2.90;;;;;;;18.15;41.47;99861.75;5136560;27;20257;-92
2022/10/22 08:12:44;;;;;;;7.20;3.40;;;;;;;18.34;41.21;99869.22;5118224;27;20266;-91
2022/10/22 08:15:09;;;;;;;5.37;2.50;;;;;;;18.49;41.90;99872.59;5136087;27;20624;-92
2022/10/22 08:17:35;;;;;;;4.97;2.63;;;;;;;18.71;40.66;99870.06;5118275;27;20243;-90
2022/10/22 08:20:06;;;;;;;5.53;2.53;;;;;;;18.83;40.77;99867.34;5136405;27;20565;-91
2022/10/22 08:22:32;;;;;;;10.00;2.97;;;;;;;18.96;40.21;99859.28;5135526;27;20159;-91
2022/10/22 08:24:59;;;;;;;8.87;2.77;;;;;;;19.03;39.56;99863.16;5136005;27;20182;-90
2022/10/22 08:27:24;;;;;;;4.03;2.30;;;;;;;19.09;39.37;99867.16;5117945;27;20178;-90
2022/10/22 08:29:50;;;;;;;6.10;2.87;;;;;;;19.10;39.76;99869.72;5118114;27;20174;-92
2022/10/22 08:32:15;;;;;;;11.47;3.67;;;;;;;19.33;38.96;99870.63;5117780;27;20636;-91
2022/10/22 08:34:41;;;;;;;6.97;3.07;;;;;;;19.58;39.68;99865.97;5136128;27;20171;-91
2022/10/22 08:37:07;;;;;;;8.40;3.37;;;;;;;19.79;39.37;99862.59;5135693;27;20203;-92
2022/10/22 08:39:33;;;;;;;5.10;2.60;;;;;;;19.87;38.34;99853.03;5135849;27;20163;-93
2022/10/22 08:42:39;;;;;;;7.33;3.43;;;;;;;19.91;38.90;99851.84;5117576;27;20177;-92
2022/10/22 08:45:14;;;;;;;8.70;2.80;;;;;;;19.96;38.76;99852.31;5135889;27;20151;-91
2022/10/22 08:47:57;;;;;;;7.43;3.17;;;;;;;20.12;38.48;99855.44;5117454;27;20616;-92
2022/10/22 08:50:29;;;;;;;10.93;3.30;;;;;;;20.13;37.58;99843.81;5136046;27;20174;-91
2022/10/22 08:52:59;;;;;;;9.67;3.57;;;;;;;20.22;37.13;99844.91;5135465;27;20194;-92
2022/10/22 08:55:27;;;;;;;6.50;2.77;;;;;;;20.39;37.80;99852.38;5135431;27;20167;-91
2022/10/22 08:58:03;;;;;;;4.97;2.53;;;;;;;20.43;37.98;99847.66;5117354;27;20182;-91
2022/10/22 09:00:59;;;;;;;6.33;2.80;;;;;;;20.54;37.69;99837.84;5118398;27;20534;-91
2022/10/22 09:03:34;;;;;;;3.57;2.13;;;;;;;20.66;37.92;99841.28;5133382;27;20186;-91
2022/10/22 09:06:20;;;;;;;8.60;3.00;;;;;;;20.98;37.20;99838.59;5117198;27;20167;-90
2022/10/22 09:08:46;;;;;;;5.23;2.60;;;;;;;21.05;37.21;99839.75;5135718;27;20187;-92
2022/10/22 09:11:12;;;;;;;8.60;3.67;;;;;;;21.19;37.30;99844.81;5135118;27;20270;-92
2022/10/22 09:13:40;;;;;;;4.20;2.57;;;;;;;21.37;36.51;99836.09;5135040;27;20171;-91
2022/10/22 09:16:32;;;;;;;7.77;3.37;;;;;;;21.51;36.49;99826.06;5116799;27;20234;-91
2022/10/22 09:19:06;;;;;;;5.50;3.00;;;;;;;21.35;35.81;99819.38;5117406;27;20520;-92
2022/10/22 09:22:10;;;;;;;7.30;3.13;;;;;;;21.82;35.95;99815.25;5116717;27;20728;-91
2022/10/22 09:24:38;;;;;;;6.27;2.67;;;;;;;21.89;36.10;99810.22;5052307;28;20176;-91
2022/10/22 09:27:11;;;;;;;11.37;3.00;;;;;;;22.04;35.54;99799.03;5120895;27;20548;-91
2022/10/22 09:29:37;;;;;;;7.67;3.07;;;;;;;21.33;36.22;99804.50;5135104;27;20171;-91
2022/10/22 09:32:03;;;;;;;5.33;2.60;;;;;;;21.19;36.94;99808.34;5116650;27;20182;-92
2022/10/22 09:34:29;;;;;;;7.53;3.00;;;;;;;21.62;36.32;99801.97;5134564;27;20254;-91
2022/10/22 09:37:05;;;;;;;5.00;2.90;;;;;;;21.85;35.98;99795.44;5116462;27;20679;-90
2022/10/22 09:39:32;;;;;;;6.27;2.83;;;;;;;22.22;35.16;99790.38;5116838;27;20620;-91
2022/10/22 09:41:58;;;;;;;6.00;2.83;;;;;;;22.46;34.86;99786.28;5134502;27;20185;-92
2022/10/22 09:44:23;;;;;;;6.13;3.00;;;;;;;22.29;35.67;99784.31;5116366;27;20178;-92
2022/10/22 09:46:49;;;;;;;12.10;2.50;;;;;;;22.53;35.45;99779.44;5116389;27;20227;-91
2022/10/22 09:49:17;;;;;;;3.37;2.10;;;;;;;22.81;34.48;99779.56;5116729;27;20174;-93
2022/10/22 09:51:59;;;;;;;5.70;2.70;;;;;;;22.77;34.69;99776.34;5116102;27;20206;-91
2022/10/22 09:54:38;;;;;;;5.53;2.30;;;;;;;22.83;34.47;99780.25;5134326;27;20175;-91
2022/10/22 09:57:12;;;;;;;5.63;2.10;;;;;;;22.88;34.30;99772.66;5116150;27;20202;-92
2022/10/22 09:59:40;;;;;;;4.67;2.73;;;;;;;23.23;34.19;99765.69;5116248;27;20181;-91
2022/10/22 10:02:15;;;;;;;4.60;2.33;;;;;;;23.30;33.63;99773.13;5134171;27;20175;-91
2022/10/22 10:04:52;;;;;;;4.73;2.47;;;;;;;23.55;33.88;99762.66;5116076;27;20547;-91
2022/10/22 10:07:20;;;;;;;6.40;2.83;;;;;;;23.51;33.36;99755.06;5116187;28;20171;-93
2022/10/22 10:09:46;;;;;;;10.30;2.73;;;;;;;23.30;33.57;99749.03;5134072;27;20650;-91
2022/10/22 10:12:43;;;;;;;5.77;2.37;;;;;;;23.01;34.07;99751.81;5134078;27;20184;-92
2022/10/22 10:15:28;;;;;;;8.00;3.00;;;;;;;23.25;34.11;99754.84;5134345;27;20151;-92
2022/10/22 10:18:32;;;;;;;6.30;2.40;;;;;;;23.31;33.74;99740.88;5116290;28;20695;-91
2022/10/22 10:21:29;;;;;;;5.70;2.60;;;;;;;23.67;33.72;99725.81;5103527;28;20209;-92
2022/10/22 10:24:17;;;;;;;6.93;2.80;;;;;;;24.03;33.21;99727.56;5134010;28;20167;-91
2022/10/22 10:26:57;;;;;;;5.50;2.67;;;;;;;24.35;32.69;99721.72;5115282;28;20229;-92
2022/10/22 10:29:52;;;;;;;17.30;7.77;;;;;;;24.70;32.50;99713.66;5134234;28;20174;-91
2022/10/22 10:32:35;;;;;;;6.70;3.27;;;;;;;24.85;32.08;99713.94;5113408;28;20256;-92
2022/10/22 10:35:20;;;;;;;6.10;2.97;;;;;;;24.99;32.11;99706.19;5116262;28;20179;-92
2022/10/22 10:38:01;;;;;;;5.17;2.33;;;;;;;25.11;31.91;99701.38;5134720;28;20231;-91
2022/10/22 10:41:02;;;;;;;4.53;2.33;;;;;;;25.26;31.93;99697.06;5116018;28;20265;-92
2022/10/22 10:44:04;;;;;;;5.13;2.33;;;;;;;25.51;31.66;99695.38;5102638;28;20195;-92
2022/10/22 10:46:46;;;;;;;5.50;2.63;;;;;;;25.58;31.20;99678.47;5136554;27;20174;-90
2022/10/22 10:49:25;;;;;;;5.03;2.70;;;;;;;25.51;31.17;99672.06;5138256;27;20166;-90
2022/10/22 10:52:07;;;;;;;5.80;2.70;;;;;;;25.42;31.21;99673.00;5119652;27;20537;-90
2022/10/22 10:54:54;;;;;;;4.82;2.28;;;;;;;25.55;31.06;99670.72;5138041;27;20589;-90
2022/10/22 10:57:34;;;;;;;4.97;2.07;;;;;;;25.58;30.74;99672.25;5138203;27;20198;-91
2022/10/22 11:00:08;;;;;;;7.23;3.20;;;;;;;25.78;30.71;99659.41;5119707;27;20522;-91
2022/10/22 11:02:40;;;;;;;5.43;2.63;;;;;;;26.12;30.44;99652.06;5119597;27;20174;-91
2022/10/22 11:05:28;;;;;;;8.07;2.37;;;;;;;25.72;30.15;99647.47;5119581;27;20171;-90
2022/10/22 11:07:56;;;;;;;6.33;2.90;;;;;;;25.42;31.08;99648.03;5120476;27;20262;-91
2022/10/22 11:10:30;;;;;;;5.27;2.53;;;;;;;25.32;31.24;99639.25;5119612;27;20193;-90
2022/10/22 11:13:11;;;;;;;4.63;2.40;;;;;;;25.62;30.68;99636.88;5137770;27;20167;-90
2022/10/22 11:15:38;;;;;;;6.47;2.80;;;;;;;25.76;30.80;99638.06;5119242;27;20195;-90
2022/10/22 11:18:18;;;;;;;7.72;2.83;;;;;;;25.94;31.29;99625.31;5119220;27;20175;-91
2022/10/22 11:20:54;;;;;;;4.80;2.28;;;;;;;25.75;30.66;99614.91;5137637;27;20170;-91
2022/10/22 11:23:31;;;;;;;3.95;2.05;;;;;;;25.94;30.91;99609.19;5119094;27;20546;-90
2022/10/22 11:26:00;;;;;;;6.07;2.80;;;;;;;26.04;30.47;99612.59;5119216;27;20167;-91
2022/10/22 11:28:32;;;;;;;5.22;2.88;;;;;;;26.06;29.95;99596.28;5137137;27;20258;-91
2022/10/22 11:31:02;;;;;;;5.38;2.78;;;;;;;26.22;30.23;99602.53;5137397;27;20179;-91
2022/10/22 11:33:40;;;;;;;7.85;2.80;;;;;;;26.39;29.83;99599.84;5137355;27;20167;-91
2022/10/22 11:36:07;;;;;;;6.00;2.97;;;;;;;26.62;29.87;99601.66;5137269;27;20198;-90
2022/10/22 11:38:34;;;;;;;8.48;2.65;;;;;;;26.56;29.45;99604.19;5118840;27;20197;-91
2022/10/22 11:41:05;;;;;;;5.28;2.28;;;;;;;26.43;29.46;99595.81;5118804;27;20171;-91
2022/10/22 11:43:34;;;;;;;8.15;2.65;;;;;;;26.66;29.58;99591.38;5137120;27;20167;-89
2022/10/22 11:46:25;;;;;;;5.18;2.30;;;;;;;27.07;29.68;99592.94;5136774;27;20167;-91
2022/10/22 11:49:04;;;;;;;5.35;2.28;;;;;;;27.46;28.97;99589.44;5137130;27;20584;-91